Time;durP1;ratioP1;P1;durP2;ratioP2;P2;SDS_P1;SDS_P2;PMS_P1;PMS_P2;Temp;Humidity;BMP_temperature;BMP_pressure;BME280_temperature;BME280_humidity;BME280_pressure;Samples;Min_cycle;Max_cycle;Signal;HPM_P1;HPM_P2
2023/05/21 00:00:10;;;;;;;56.72;32.35;;;;;;;-142.57;100.00;115900.28;4942623;29;20043;-89
2023/05/21 00:02:38;;;;;;;59.63;33.83;;;;;;;-142.57;100.00;115900.28;4941043;29;20040;-86
2023/05/21 00:05:04;;;;;;;58.50;34.78;;;;;;;-142.57;100.00;115900.28;4939904;29;20102;-88
2023/05/21 00:07:32;;;;;;;58.80;35.42;;;;;;;-142.57;100.00;115900.28;4942522;29;20074;-90
2023/05/21 00:10:01;;;;;;;58.58;35.53;;;;;;;-142.57;100.00;115900.28;4942526;29;20036;-90
2023/05/21 00:12:31;;;;;;;59.33;32.78;;;;;;;-142.57;100.00;115900.28;4940157;29;20072;-89
2023/05/21 00:14:57;;;;;;;59.67;34.85;;;;;;;-142.57;100.00;115900.28;4940083;29;20393;-89
2023/05/21 00:17:24;;;;;;;58.25;34.38;;;;;;;-142.57;100.00;115900.28;4939510;29;20040;-87
2023/05/21 00:19:54;;;;;;;68.85;38.03;;;;;;;-142.57;100.00;115900.28;4939598;29;20044;-88
2023/05/21 00:22:20;;;;;;;60.95;34.45;;;;;;;-142.57;100.00;115900.28;4940604;29;20036;-87
2023/05/21 00:24:48;;;;;;;62.13;36.88;;;;;;;-142.57;100.00;115900.28;4940331;29;20091;-86
2023/05/21 00:27:14;;;;;;;66.60;36.85;;;;;;;-142.57;100.00;115900.28;4939772;29;20040;-90
2023/05/21 00:29:40;;;;;;;57.03;34.30;;;;;;;-142.57;100.00;115900.28;4922480;29;20047;-87
2023/05/21 00:32:09;;;;;;;65.60;36.92;;;;;;;-142.57;100.00;115900.28;4938130;29;20087;-86
2023/05/21 00:34:35;;;;;;;62.15;36.38;;;;;;;-142.57;100.00;115900.28;4941113;29;20032;-90
2023/05/21 00:37:01;;;;;;;70.00;38.30;;;;;;;-142.57;100.00;115900.28;4939851;29;20380;-90
2023/05/21 00:39:27;;;;;;;62.33;36.38;;;;;;;-142.57;100.00;115900.28;4939024;29;20091;-89
2023/05/21 00:41:52;;;;;;;66.40;36.92;;;;;;;-142.57;100.00;115900.28;4937531;29;20482;-87
2023/05/21 00:44:19;;;;;;;62.85;34.22;;;;;;;-142.57;100.00;115900.28;4937427;29;20028;-89
2023/05/21 00:46:47;;;;;;;67.72;34.88;;;;;;;-142.57;100.00;115900.28;4935648;29;20438;-88
2023/05/21 00:49:13;;;;;;;67.18;37.28;;;;;;;-142.57;100.00;115900.28;4938083;29;20501;-89
2023/05/21 00:51:39;;;;;;;74.40;37.55;;;;;;;-142.57;100.00;115900.28;4954033;29;20040;-87
2023/05/21 00:54:05;;;;;;;68.10;36.25;;;;;;;-142.57;100.00;115900.28;4938188;29;20090;-88
2023/05/21 00:56:31;;;;;;;71.13;38.58;;;;;;;-142.57;100.00;115900.28;4936015;29;20049;-89
2023/05/21 00:58:57;;;;;;;71.60;38.28;;;;;;;-142.57;100.00;115900.28;4935383;29;20043;-89
2023/05/21 01:01:24;;;;;;;69.90;35.67;;;;;;;-142.57;100.00;115900.28;4938520;29;20043;-88
2023/05/21 01:03:56;;;;;;;71.13;37.90;;;;;;;-142.57;100.00;115900.28;4937104;29;20035;-89
2023/05/21 01:06:22;;;;;;;52.87;27.87;;;;;;;-142.57;100.00;115900.28;4936328;29;20522;-87
2023/05/21 01:08:49;;;;;;;69.07;37.80;;;;;;;-142.57;100.00;115900.28;4936741;29;20040;-90
2023/05/21 01:11:20;;;;;;;74.93;38.17;;;;;;;-142.57;100.00;115900.28;4935807;29;20511;-89
2023/05/21 01:13:47;;;;;;;74.07;38.75;;;;;;;-142.57;100.00;115900.28;4938104;29;20027;-89
2023/05/21 01:16:16;;;;;;;74.10;37.45;;;;;;;-142.57;100.00;115900.28;4937691;29;20508;-89
2023/05/21 01:18:43;;;;;;;66.88;37.83;;;;;;;-142.57;100.00;115900.28;4937722;29;20036;-89
2023/05/21 01:21:11;;;;;;;71.25;39.63;;;;;;;-142.57;100.00;115900.28;4935728;29;20043;-89
2023/05/21 01:23:37;;;;;;;74.97;38.53;;;;;;;-142.57;100.00;115900.28;4935033;29;20028;-92
2023/05/21 01:26:03;;;;;;;73.47;40.05;;;;;;;-142.57;100.00;115900.28;4937053;29;20036;-87
2023/05/21 01:28:28;;;;;;;71.38;38.63;;;;;;;-142.57;100.00;115900.28;4938107;29;20530;-89
2023/05/21 01:30:57;;;;;;;73.95;39.15;;;;;;;-142.57;100.00;115900.28;4939645;29;20063;-86
2023/05/21 01:33:48;;;;;;;77.45;38.97;;;;;;;-142.57;100.00;115900.28;4923116;29;20067;-90
2023/05/21 01:36:22;;;;;;;68.75;38.90;;;;;;;-142.57;100.00;115900.28;4941044;29;20032;-87
2023/05/21 01:39:17;;;;;;;75.32;38.83;;;;;;;-142.57;100.00;115900.28;4941738;29;20072;-91
2023/05/21 01:41:45;;;;;;;73.53;40.83;;;;;;;-142.57;100.00;115900.28;4938042;29;20031;-90
2023/05/21 01:44:12;;;;;;;74.15;38.80;;;;;;;-142.57;100.00;115900.28;4937201;29;20430;-91
2023/05/21 01:46:43;;;;;;;78.35;38.85;;;;;;;-142.57;100.00;115900.28;4936781;29;20043;-90
2023/05/21 01:49:10;;;;;;;77.13;38.97;;;;;;;-142.57;100.00;115900.28;4938974;29;20106;-88
2023/05/21 01:51:36;;;;;;;73.20;39.15;;;;;;;-142.57;100.00;115900.28;4940569;29;20031;-90
2023/05/21 01:54:01;;;;;;;70.55;38.22;;;;;;;-142.57;100.00;115900.28;4939771;29;20119;-91
2023/05/21 01:56:27;;;;;;;85.00;40.47;;;;;;;-142.57;100.00;115900.28;4941001;29;20197;-90
2023/05/21 01:58:58;;;;;;;81.35;41.53;;;;;;;-142.57;100.00;115900.28;4940152;29;20028;-87
2023/05/21 02:01:25;;;;;;;83.40;42.88;;;;;;;-142.57;100.00;115900.28;4941688;29;20058;-87
2023/05/21 02:03:50;;;;;;;89.45;44.53;;;;;;;-142.57;100.00;115900.28;4956897;28;20070;-86
2023/05/21 02:06:16;;;;;;;92.90;44.00;;;;;;;-142.57;100.00;115900.28;4960179;28;20039;-86
2023/05/21 02:08:41;;;;;;;88.38;43.00;;;;;;;-142.57;100.00;115900.28;4950185;29;20040;-89
2023/05/21 02:11:08;;;;;;;89.22;43.45;;;;;;;-142.57;100.00;115900.28;4943288;29;20028;-89
2023/05/21 02:13:41;;;;;;;81.15;41.25;;;;;;;-142.57;100.00;115900.28;4945867;29;20058;-89
2023/05/21 02:16:13;;;;;;;91.68;43.65;;;;;;;-142.57;100.00;115900.28;4949527;29;20548;-88
2023/05/21 02:18:45;;;;;;;83.25;43.08;;;;;;;-142.57;100.00;115900.28;4944422;29;20043;-89
2023/05/21 02:21:10;;;;;;;98.68;42.55;;;;;;;-142.57;100.00;115900.28;4944459;29;20040;-88
2023/05/21 02:23:36;;;;;;;92.13;42.55;;;;;;;-142.57;100.00;115900.28;4942573;29;20508;-86
2023/05/21 02:26:02;;;;;;;89.18;43.70;;;;;;;-142.57;100.00;115900.28;4940749;29;20387;-88
2023/05/21 02:28:28;;;;;;;81.70;40.80;;;;;;;-142.57;100.00;115900.28;4942716;29;20144;-89
2023/05/21 02:30:55;;;;;;;83.05;40.55;;;;;;;-142.57;100.00;115900.28;4940735;29;20092;-85
2023/05/21 02:33:23;;;;;;;87.88;41.58;;;;;;;-142.57;100.00;115900.28;4940264;29;20032;-89
2023/05/21 02:35:49;;;;;;;82.72;41.30;;;;;;;-142.57;100.00;115900.28;4941341;29;20036;-92
2023/05/21 02:38:18;;;;;;;79.35;41.63;;;;;;;-142.57;100.00;115900.28;4941220;29;20388;-89
2023/05/21 02:40:45;;;;;;;75.80;40.60;;;;;;;-142.57;100.00;115900.28;4924106;29;20044;-89
2023/05/21 02:43:10;;;;;;;88.25;42.65;;;;;;;-142.57;100.00;115900.28;4940015;29;20055;-87
2023/05/21 02:45:36;;;;;;;80.38;42.90;;;;;;;-142.57;100.00;115900.28;4939068;29;20048;-87
2023/05/21 02:48:01;;;;;;;73.80;39.47;;;;;;;-142.57;100.00;115900.28;4938291;29;20035;-88
2023/05/21 02:50:28;;;;;;;78.63;40.85;;;;;;;-142.57;100.00;115900.28;4940437;29;20043;-87
2023/05/21 02:52:58;;;;;;;78.28;41.42;;;;;;;-142.57;100.00;115900.28;4941060;29;20082;-84
2023/05/21 02:55:24;;;;;;;78.75;42.78;;;;;;;-142.57;100.00;115900.28;4942475;29;20138;-87
2023/05/21 02:57:50;;;;;;;78.97;43.20;;;;;;;-142.57;100.00;115900.28;4943133;29;20402;-88
2023/05/21 03:00:16;;;;;;;90.72;43.95;;;;;;;-142.57;100.00;115900.28;4941728;29;20036;-86
2023/05/21 03:02:42;;;;;;;88.30;44.83;;;;;;;-142.57;100.00;115900.28;4940467;29;20147;-85
2023/05/21 03:05:08;;;;;;;85.50;44.78;;;;;;;-142.57;100.00;115900.28;4943858;29;20035;-86
2023/05/21 03:07:34;;;;;;;88.25;45.55;;;;;;;-142.57;100.00;115900.28;4944589;29;20050;-90
2023/05/21 03:09:59;;;;;;;91.03;46.03;;;;;;;-142.57;100.00;115900.28;4943690;29;20500;-89
2023/05/21 03:12:25;;;;;;;96.13;49.13;;;;;;;-142.57;100.00;115900.28;4942030;29;20050;-88
2023/05/21 03:14:51;;;;;;;94.07;48.55;;;;;;;-142.57;100.00;115900.28;4938605;29;20094;-87
2023/05/21 03:17:19;;;;;;;94.85;46.55;;;;;;;-142.57;100.00;115900.28;4937193;29;20079;-88
2023/05/21 03:19:44;;;;;;;92.18;48.63;;;;;;;-142.57;100.00;115900.28;4939553;29;20027;-88
2023/05/21 03:22:10;;;;;;;99.63;49.22;;;;;;;-142.57;100.00;115900.28;4938526;29;20402;-88
2023/05/21 03:24:38;;;;;;;90.47;47.22;;;;;;;-142.57;100.00;115900.28;4938305;29;20091;-88
2023/05/21 03:27:07;;;;;;;98.80;47.45;;;;;;;-142.57;100.00;115900.28;4939573;29;20040;-87
2023/05/21 03:29:33;;;;;;;106.82;52.08;;;;;;;-142.57;100.00;115900.28;4938412;29;20067;-90
2023/05/21 03:32:01;;;;;;;106.97;49.65;;;;;;;-142.57;100.00;115900.28;4938710;29;20028;-87
2023/05/21 03:34:27;;;;;;;104.45;50.60;;;;;;;-142.57;100.00;115900.28;4944095;29;20048;-86
2023/05/21 03:36:52;;;;;;;100.90;51.08;;;;;;;-142.57;100.00;115900.28;4929075;29;20047;-87
2023/05/21 03:39:20;;;;;;;100.15;51.15;;;;;;;-142.57;100.00;115900.28;4945806;29;20106;-87
2023/05/21 03:41:45;;;;;;;108.50;51.50;;;;;;;-142.57;100.00;115900.28;4937542;29;20043;-84
2023/05/21 03:44:32;;;;;;;105.25;51.80;;;;;;;-142.57;100.00;115900.28;4934959;29;20047;-85
2023/05/21 03:47:26;;;;;;;94.75;48.75;;;;;;;-142.57;100.00;115900.28;4893343;29;20045;-87
2023/05/21 03:49:52;;;;;;;86.18;47.20;;;;;;;-142.57;100.00;115900.28;4928624;29;20378;-89
2023/05/21 03:52:18;;;;;;;90.32;48.67;;;;;;;-142.57;100.00;115900.28;4938575;29;20037;-90
2023/05/21 03:54:43;;;;;;;92.03;47.08;;;;;;;-142.57;100.00;115900.28;4939790;29;20036;-87
2023/05/21 03:57:09;;;;;;;94.78;49.20;;;;;;;-142.57;100.00;115900.28;4938780;29;20043;-88
2023/05/21 03:59:35;;;;;;;91.00;48.72;;;;;;;-142.57;100.00;115900.28;4942410;29;20059;-88
2023/05/21 04:02:01;;;;;;;98.90;50.75;;;;;;;-142.57;100.00;115900.28;4944991;29;20036;-85
2023/05/21 04:04:28;;;;;;;95.22;50.17;;;;;;;-142.57;100.00;115900.28;4943085;29;20365;-87
2023/05/21 04:06:54;;;;;;;102.45;51.78;;;;;;;-142.57;100.00;115900.28;4943658;29;20068;-89
2023/05/21 04:09:21;;;;;;;101.95;51.25;;;;;;;-142.57;100.00;115900.28;4926156;29;20117;-88
2023/05/21 04:11:46;;;;;;;106.85;52.28;;;;;;;-142.57;100.00;115900.28;4940499;29;20123;-91
2023/05/21 04:14:12;;;;;;;104.00;51.97;;;;;;;-142.57;100.00;115900.28;4939290;29;20043;-89
2023/05/21 04:16:38;;;;;;;113.75;52.53;;;;;;;-142.57;100.00;115900.28;4937804;29;20047;-88
2023/05/21 04:19:05;;;;;;;116.15;55.97;;;;;;;-142.57;100.00;115900.28;4937177;29;20493;-88
2023/05/21 04:21:31;;;;;;;114.07;55.10;;;;;;;-142.57;100.00;115900.28;4936685;29;20107;-89
2023/05/21 04:23:59;;;;;;;119.47;54.58;;;;;;;-142.57;100.00;115900.28;4920039;29;20047;-87
2023/05/21 04:26:46;;;;;;;114.38;52.08;;;;;;;-142.57;100.00;115900.28;4926621;29;20118;-86
2023/05/21 04:29:12;;;;;;;113.82;56.22;;;;;;;-142.57;100.00;115900.28;4935626;29;20084;-90
2023/05/21 04:31:38;;;;;;;112.38;54.13;;;;;;;-142.57;100.00;115900.28;4935343;29;20569;-85
2023/05/21 04:34:03;;;;;;;119.20;56.42;;;;;;;-142.57;100.00;115900.28;4935380;29;20031;-86
2023/05/21 04:36:30;;;;;;;117.85;55.40;;;;;;;-142.57;100.00;115900.28;4935658;29;20035;-88
2023/05/21 04:38:55;;;;;;;125.43;57.13;;;;;;;-142.57;100.00;115900.28;4934623;29;20346;-89
2023/05/21 04:41:21;;;;;;;113.80;54.35;;;;;;;-142.57;100.00;115900.28;4934395;29;20434;-89
2023/05/21 04:43:46;;;;;;;115.95;54.55;;;;;;;-142.57;100.00;115900.28;4933882;29;20487;-88
2023/05/21 04:46:13;;;;;;;119.20;56.60;;;;;;;-142.57;100.00;115900.28;4933671;29;20027;-88
2023/05/21 04:48:39;;;;;;;114.63;54.00;;;;;;;-142.57;100.00;115900.28;4936271;29;20500;-89
2023/05/21 04:51:07;;;;;;;117.00;53.40;;;;;;;-142.57;100.00;115900.28;4938186;29;20039;-86
2023/05/21 04:53:35;;;;;;;119.20;55.10;;;;;;;-142.57;100.00;115900.28;4945578;29;20135;-86
2023/05/21 04:56:01;;;;;;;114.68;55.22;;;;;;;-142.57;100.00;115900.28;4951695;29;20059;-87
2023/05/21 04:58:28;;;;;;;110.70;53.92;;;;;;;-142.57;100.00;115900.28;4955121;29;20032;-90
2023/05/21 05:00:54;;;;;;;115.53;54.95;;;;;;;-142.57;100.00;115900.28;4944746;29;20036;-89
2023/05/21 05:03:20;;;;;;;109.95;53.67;;;;;;;-142.57;100.00;115900.28;4939950;29;20046;-89
2023/05/21 05:05:46;;;;;;;108.15;52.35;;;;;;;-142.57;100.00;115900.28;4926204;29;20042;-89
2023/05/21 05:08:11;;;;;;;97.47;48.40;;;;;;;-142.57;100.00;115900.28;4950152;29;20039;-89
2023/05/21 05:10:37;;;;;;;110.38;51.25;;;;;;;-142.57;100.00;115900.28;4936989;29;20074;-90
2023/05/21 05:13:02;;;;;;;104.47;51.58;;;;;;;-142.57;100.00;115900.28;4938368;29;20044;-91
2023/05/21 05:15:28;;;;;;;100.95;48.92;;;;;;;-142.57;100.00;115900.28;4939923;29;20075;-87
2023/05/21 05:17:55;;;;;;;105.15;51.08;;;;;;;-142.57;100.00;115900.28;4936900;29;20083;-87
2023/05/21 05:20:21;;;;;;;106.70;51.75;;;;;;;-142.57;100.00;115900.28;4936425;29;20179;-87
2023/05/21 05:22:48;;;;;;;107.10;50.88;;;;;;;-142.57;100.00;115900.28;4938795;29;20031;-89
2023/05/21 05:25:13;;;;;;;109.97;51.60;;;;;;;-142.57;100.00;115900.28;4941667;29;20031;-86
2023/05/21 05:27:39;;;;;;;108.78;51.17;;;;;;;-142.57;100.00;115900.28;4945157;29;20054;-86
2023/05/21 05:30:06;;;;;;;102.70;47.97;;;;;;;-142.57;100.00;115900.28;4946082;29;20036;-87
2023/05/21 05:32:31;;;;;;;96.65;44.88;;;;;;;-142.57;100.00;115900.28;4943898;29;20032;-89
2023/05/21 05:34:57;;;;;;;97.28;46.22;;;;;;;-142.57;100.00;115900.28;4941490;29;20026;-88
2023/05/21 05:37:23;;;;;;;88.10;44.03;;;;;;;-142.57;100.00;115900.28;4940198;29;20131;-91
2023/05/21 05:39:49;;;;;;;92.65;44.22;;;;;;;-142.57;100.00;115900.28;4941621;29;20067;-89
2023/05/21 05:42:15;;;;;;;88.15;43.42;;;;;;;-142.57;100.00;115900.28;4938269;29;20039;-90
2023/05/21 05:44:40;;;;;;;88.45;42.78;;;;;;;-142.57;100.00;115900.28;4938278;29;20046;-90
2023/05/21 05:47:09;;;;;;;83.78;41.38;;;;;;;-142.57;100.00;115900.28;4939766;29;20036;-88
2023/05/21 05:49:37;;;;;;;84.03;41.22;;;;;;;-142.57;100.00;115900.28;4941207;29;20127;-87
2023/05/21 05:52:03;;;;;;;86.05;40.67;;;;;;;-142.57;100.00;115900.28;4925416;29;20402;-88
2023/05/21 05:54:29;;;;;;;74.40;38.17;;;;;;;-142.57;100.00;115900.28;4944597;29;20119;-88
2023/05/21 05:56:55;;;;;;;76.35;38.40;;;;;;;-142.57;100.00;115900.28;4940200;29;20039;-88
2023/05/21 05:59:24;;;;;;;72.95;37.67;;;;;;;-142.57;100.00;115900.28;4942547;29;20397;-87
2023/05/21 06:02:00;;;;;;;73.97;38.90;;;;;;;-142.57;100.00;115900.28;4943196;29;20103;-89
2023/05/21 06:04:28;;;;;;;77.38;39.30;;;;;;;-142.57;100.00;115900.28;4943927;29;20032;-90
2023/05/21 06:06:59;;;;;;;76.75;37.33;;;;;;;-142.57;100.00;115900.28;4942007;29;20155;-89
2023/05/21 06:09:24;;;;;;;73.65;37.20;;;;;;;-142.57;100.00;115900.28;4941277;29;20048;-91
2023/05/21 06:11:50;;;;;;;76.40;36.78;;;;;;;-142.57;100.00;115900.28;4942090;29;20107;-86
2023/05/21 06:14:16;;;;;;;76.90;38.28;;;;;;;-142.57;100.00;115900.28;4941504;29;20047;-90
2023/05/21 06:16:41;;;;;;;78.22;39.78;;;;;;;-142.57;100.00;115900.28;4942739;29;20039;-88
2023/05/21 06:19:09;;;;;;;78.63;40.08;;;;;;;-142.57;100.00;115900.28;4942659;29;20036;-90
2023/05/21 06:21:36;;;;;;;77.03;39.40;;;;;;;-142.57;100.00;115900.28;4942916;29;20044;-88
2023/05/21 06:24:04;;;;;;;78.80;39.53;;;;;;;-142.57;100.00;115900.28;4941414;29;20078;-87
2023/05/21 06:26:31;;;;;;;84.60;40.22;;;;;;;-142.57;100.00;115900.28;4940189;29;20481;-87
2023/05/21 06:28:58;;;;;;;82.00;40.85;;;;;;;-142.57;100.00;115900.28;4944801;29;20194;-90
2023/05/21 06:31:31;;;;;;;81.00;41.67;;;;;;;-142.57;100.00;115900.28;4949047;28;20045;-89
2023/05/21 06:33:58;;;;;;;79.78;39.58;;;;;;;-142.57;100.00;115900.28;4955362;29;20036;-91
2023/05/21 06:36:28;;;;;;;81.00;40.20;;;;;;;-142.57;100.00;115900.28;4927298;29;20052;-91
2023/05/21 06:38:57;;;;;;;84.57;40.90;;;;;;;-142.57;100.00;115900.28;4934935;29;20130;-90
2023/05/21 06:41:25;;;;;;;80.20;40.72;;;;;;;-142.57;100.00;115900.28;4923779;29;20028;-87
2023/05/21 06:43:57;;;;;;;79.28;40.13;;;;;;;-142.57;100.00;115900.28;4920217;29;20064;-87
2023/05/21 06:47:00;;;;;;;80.40;40.33;;;;;;;-142.57;100.00;115900.28;4923508;29;20051;-89
2023/05/21 06:49:25;;;;;;;78.20;39.35;;;;;;;-142.57;100.00;115900.28;4908448;29;20043;-90
2023/05/21 06:51:55;;;;;;;77.50;39.08;;;;;;;-142.57;100.00;115900.28;4923782;29;20094;-92
2023/05/21 06:54:21;;;;;;;80.45;39.88;;;;;;;-142.57;100.00;115900.28;4929207;29;20067;-89
2023/05/21 06:56:48;;;;;;;82.82;42.17;;;;;;;-142.57;100.00;115900.28;4908063;29;20191;-92
2023/05/21 06:59:18;;;;;;;83.30;42.50;;;;;;;-142.57;100.00;115900.28;4924253;29;20036;-89
2023/05/21 07:01:43;;;;;;;82.60;40.08;;;;;;;-142.57;100.00;115900.28;4921813;29;20104;-88
2023/05/21 07:04:12;;;;;;;79.55;39.80;;;;;;;-142.57;100.00;115900.28;4925162;29;20096;-91
2023/05/21 07:06:40;;;;;;;76.78;37.75;;;;;;;-142.57;100.00;115900.28;4922480;29;20043;-86
2023/05/21 07:09:07;;;;;;;80.90;40.45;;;;;;;-142.57;100.00;115900.28;4921190;29;20051;-86
2023/05/21 07:11:43;;;;;;;77.78;37.83;;;;;;;-142.57;100.00;115900.28;4957046;23;20052;-92
2023/05/21 07:14:12;;;;;;;71.82;37.85;;;;;;;-142.57;100.00;115900.28;4886880;29;20049;-89
2023/05/21 07:16:46;;;;;;;72.20;37.55;;;;;;;-142.57;100.00;115900.28;4889492;29;20037;-91
2023/05/21 07:19:14;;;;;;;79.65;38.17;;;;;;;-142.57;100.00;115900.28;4886877;29;20104;-90
2023/05/21 07:21:44;;;;;;;64.47;35.53;;;;;;;-142.57;100.00;115900.28;4875235;29;20106;-92
2023/05/21 07:24:10;;;;;;;66.78;34.97;;;;;;;-142.57;100.00;115900.28;4889937;29;20064;-87
2023/05/21 07:26:41;;;;;;;68.90;35.13;;;;;;;-142.57;100.00;115900.28;4884808;29;20137;-88
2023/05/21 07:29:07;;;;;;;71.32;34.75;;;;;;;-142.57;100.00;115900.28;4885811;29;20048;-87
2023/05/21 07:31:33;;;;;;;65.95;35.08;;;;;;;-142.57;100.00;115900.28;4886433;29;20391;-89
2023/05/21 07:33:59;;;;;;;63.78;34.78;;;;;;;-142.57;100.00;115900.28;4887406;29;20448;-87
2023/05/21 07:36:28;;;;;;;63.55;33.28;;;;;;;-142.57;100.00;115900.28;4871288;29;20037;-90
2023/05/21 07:38:58;;;;;;;61.15;31.08;;;;;;;-142.57;100.00;115900.28;4875393;29;20040;-91
2023/05/21 07:41:27;;;;;;;56.72;30.30;;;;;;;-142.57;100.00;115900.28;4888345;29;20097;-91
2023/05/21 07:43:54;;;;;;;60.38;30.15;;;;;;;-142.57;100.00;115900.28;4891196;29;20055;-91
2023/05/21 07:46:23;;;;;;;51.17;30.33;;;;;;;-142.57;100.00;115900.28;4893792;29;20043;-89
2023/05/21 07:48:53;;;;;;;51.90;28.67;;;;;;;-142.57;100.00;115900.28;4901301;29;20037;-90
2023/05/21 07:51:18;;;;;;;48.15;26.55;;;;;;;-142.57;100.00;115900.28;4900024;29;20297;-90
2023/05/21 07:53:45;;;;;;;44.70;26.00;;;;;;;-142.57;100.00;115900.28;4857337;29;20121;-91
2023/05/21 07:56:13;;;;;;;43.38;24.67;;;;;;;-142.57;100.00;115900.28;4873408;29;20057;-91
2023/05/21 07:58:39;;;;;;;47.20;25.85;;;;;;;-142.57;100.00;115900.28;4878761;29;20089;-90
2023/05/21 08:01:05;;;;;;;38.83;23.60;;;;;;;-142.57;100.00;115900.28;4868662;29;20520;-90
2023/05/21 08:03:31;;;;;;;39.85;23.20;;;;;;;-142.57;100.00;115900.28;4866491;29;20040;-89
2023/05/21 08:05:57;;;;;;;37.63;21.35;;;;;;;-142.57;100.00;115900.28;4869763;29;20061;-88
2023/05/21 08:08:22;;;;;;;36.10;20.40;;;;;;;-142.57;100.00;115900.28;4854623;29;20037;-90
2023/05/21 08:10:51;;;;;;;34.45;19.13;;;;;;;-142.57;100.00;115900.28;4888158;29;20644;-90
2023/05/21 08:13:19;;;;;;;33.10;18.50;;;;;;;-142.57;100.00;115900.28;4891403;29;20033;-90
2023/05/21 08:15:47;;;;;;;34.30;17.85;;;;;;;-142.57;100.00;115900.28;4882985;29;20052;-91
2023/05/21 08:18:16;;;;;;;25.58;15.52;;;;;;;-142.57;100.00;115900.28;4884394;29;20120;-89
2023/05/21 08:20:49;;;;;;;30.17;18.00;;;;;;;-142.57;100.00;115900.28;4888364;29;20083;-89
2023/05/21 08:23:25;;;;;;;33.42;18.70;;;;;;;-142.57;100.00;115900.28;4885354;29;20045;-89
2023/05/21 08:25:54;;;;;;;32.65;18.30;;;;;;;-142.57;100.00;115900.28;4884457;29;20045;-92
2023/05/21 08:28:22;;;;;;;29.52;17.60;;;;;;;-142.57;100.00;115900.28;4884375;29;20056;-91
2023/05/21 08:30:48;;;;;;;32.08;17.98;;;;;;;-142.57;100.00;115900.28;4883743;29;20029;-89
2023/05/21 08:33:21;;;;;;;32.55;18.50;;;;;;;-142.57;100.00;115900.28;4885503;29;20029;-91
2023/05/21 08:35:48;;;;;;;30.70;18.25;;;;;;;-142.57;100.00;115900.28;4889964;29;20067;-85
2023/05/21 08:38:25;;;;;;;27.75;16.52;;;;;;;-142.57;100.00;115900.28;4876664;29;20053;-88
2023/05/21 08:41:11;;;;;;;31.20;17.27;;;;;;;-142.57;100.00;115900.28;4879530;29;20048;-90
2023/05/21 08:43:57;;;;;;;34.40;17.55;;;;;;;-142.57;100.00;115900.28;4880627;29;20037;-89
2023/05/21 08:46:27;;;;;;;24.58;15.13;;;;;;;-142.57;100.00;115900.28;4885945;29;20089;-92
2023/05/21 08:48:54;;;;;;;24.70;14.18;;;;;;;-142.57;100.00;115900.28;4878430;29;20041;-88
2023/05/21 08:51:24;;;;;;;25.95;15.38;;;;;;;-142.57;100.00;115900.28;4878008;29;20065;-86
2023/05/21 08:53:52;;;;;;;29.70;14.82;;;;;;;-142.57;100.00;115900.28;4877527;29;20093;-87
2023/05/21 08:56:20;;;;;;;25.38;14.35;;;;;;;-142.57;100.00;115900.28;4873625;29;20040;-85
2023/05/21 08:58:52;;;;;;;26.20;14.75;;;;;;;-142.57;100.00;115900.28;4878878;29;20033;-88
2023/05/21 09:01:21;;;;;;;25.20;14.25;;;;;;;-142.57;100.00;115900.28;4878094;29;20041;-86
2023/05/21 09:03:56;;;;;;;20.75;13.10;;;;;;;-142.57;100.00;115900.28;4877598;29;20387;-85
2023/05/21 09:06:24;;;;;;;23.73;14.50;;;;;;;-142.57;100.00;115900.28;4876541;29;20077;-87
2023/05/21 09:09:05;;;;;;;22.90;14.20;;;;;;;-142.57;100.00;115900.28;4877933;29;20514;-87
2023/05/21 09:11:42;;;;;;;23.55;14.38;;;;;;;-142.57;100.00;115900.28;4879126;29;20100;-87
2023/05/21 09:14:10;;;;;;;20.45;13.38;;;;;;;-142.57;100.00;115900.28;4879465;29;20040;-90
2023/05/21 09:16:53;;;;;;;19.70;12.85;;;;;;;-142.57;100.00;115900.28;4881917;29;20033;-87
2023/05/21 09:19:21;;;;;;;19.83;13.30;;;;;;;-142.57;100.00;115900.28;4887332;29;20071;-90
2023/05/21 09:21:50;;;;;;;20.85;13.93;;;;;;;-142.57;100.00;115900.28;4889877;29;20100;-82
2023/05/21 09:24:22;;;;;;;20.02;13.18;;;;;;;-142.57;100.00;115900.28;4887883;29;20041;-90
2023/05/21 09:26:48;;;;;;;20.05;12.60;;;;;;;-142.57;100.00;115900.28;4923506;23;20537;-90
2023/05/21 09:29:14;;;;;;;21.85;12.60;;;;;;;-142.57;100.00;115900.28;4926574;29;20071;-88
2023/05/21 09:31:43;;;;;;;20.67;11.48;;;;;;;-142.57;100.00;115900.28;4911087;29;20051;-90
2023/05/21 09:34:12;;;;;;;23.50;11.95;;;;;;;-142.57;100.00;115900.28;4930217;29;20039;-86
2023/05/21 09:36:40;;;;;;;23.92;11.05;;;;;;;-142.57;100.00;115900.28;4899586;29;20558;-85
2023/05/21 09:39:06;;;;;;;19.60;11.18;;;;;;;-142.57;100.00;115900.28;4915955;29;20116;-83
2023/05/21 09:41:35;;;;;;;15.05;10.55;;;;;;;-142.57;100.00;115900.28;4902832;29;20040;-84
2023/05/21 09:44:02;;;;;;;19.45;11.52;;;;;;;-142.57;100.00;115900.28;4936826;29;20043;-86
2023/05/21 09:46:41;;;;;;;23.38;11.05;;;;;;;-142.57;100.00;115900.28;4920130;29;20505;-82
2023/05/21 09:49:25;;;;;;;18.27;10.13;;;;;;;-142.57;100.00;115900.28;4918798;29;20127;-85
2023/05/21 09:52:01;;;;;;;22.95;10.65;;;;;;;-142.57;100.00;115900.28;4921063;29;20040;-88
2023/05/21 09:54:32;;;;;;;15.13;9.65;;;;;;;-142.57;100.00;115900.28;4942341;29;20062;-89
2023/05/21 09:57:05;;;;;;;19.70;10.18;;;;;;;-142.57;100.00;115900.28;4926879;29;20050;-89
2023/05/21 09:59:40;;;;;;;15.98;9.25;;;;;;;-142.57;100.00;115900.28;4929033;29;20119;-88
2023/05/21 10:02:22;;;;;;;14.15;8.85;;;;;;;-142.57;100.00;115900.28;4946485;29;20103;-85
2023/05/21 10:04:49;;;;;;;13.30;8.80;;;;;;;-142.57;100.00;115900.28;4943127;29;20098;-88
2023/05/21 10:07:24;;;;;;;15.05;8.73;;;;;;;-142.57;100.00;115900.28;4928312;29;20036;-89
2023/05/21 10:09:55;;;;;;;12.77;9.00;;;;;;;-142.57;100.00;115900.28;4925485;29;20123;-84
2023/05/21 10:12:22;;;;;;;12.65;8.98;;;;;;;-142.57;100.00;115900.28;4937781;29;20450;-85
2023/05/21 10:14:54;;;;;;;14.20;9.68;;;;;;;-142.57;100.00;115900.28;4925456;29;20028;-86
2023/05/21 10:17:21;;;;;;;19.20;9.23;;;;;;;-142.57;100.00;115900.28;4928524;29;20040;-87
2023/05/21 10:19:48;;;;;;;16.27;9.43;;;;;;;-142.57;100.00;115900.28;4930207;29;20039;-87
2023/05/21 10:22:21;;;;;;;16.67;8.80;;;;;;;-142.57;100.00;115900.28;4947900;29;20031;-87
2023/05/21 10:24:48;;;;;;;12.95;9.00;;;;;;;-142.57;100.00;115900.28;4945925;29;20390;-88
2023/05/21 10:27:14;;;;;;;21.25;9.27;;;;;;;-142.57;100.00;115900.28;4928715;29;20039;-85
2023/05/21 10:29:42;;;;;;;15.68;9.48;;;;;;;-142.57;98.38;115900.28;4945200;29;20035;-82
2023/05/21 10:32:10;;;;;;;19.48;9.93;;;;;;;-142.57;88.47;115900.28;4944520;29;20039;-84
2023/05/21 10:34:37;;;;;;;17.05;10.00;;;;;;;-142.57;81.56;115900.28;4911116;29;20039;-84
2023/05/21 10:37:31;;;;;;;17.65;9.65;;;;;;;-142.57;80.29;115900.28;4946814;29;20521;-87
2023/05/21 10:40:03;;;;;;;13.30;9.40;;;;;;;-142.57;76.87;115900.28;4928930;29;20039;-89
2023/05/21 10:43:27;;;;;;;15.70;9.82;;;;;;;-142.57;78.22;115900.28;4943555;29;20055;-92
2023/05/21 10:46:07;;;;;;;13.05;9.00;;;;;;;-142.57;71.56;115900.28;4881660;29;20075;-84
2023/05/21 11:01:58;;;;;;;16.98;10.18;;;;;;;-142.57;65.23;115900.28;4892192;23;20063;-87
2023/05/21 11:04:41;;;;;;;17.90;9.00;;;;;;;-142.57;61.72;115900.28;4877503;23;20036;-87
2023/05/21 11:21:34;;;;;;;16.48;10.25;;;;;;;-142.57;58.32;115900.28;4549239;27;20168;-83